ローマ/フィウミチーノ の空港の天気 - METARとTAF

ローマ・レオナルド・ダ・ビンチ国際空港 ( LIRF / FCO ) - イタリア ローマ
飛行場実況気象(Metar)
観測時間12/16 04:20 CET (12/16 03:20 UTC)
風向・風速南東 5m/s
視程10km以上
天気現象
少しの雲 雲底高度 460m
全天の4割程度の雲 雲底高度 760m
全天の8割程度の雲 雲底高度 1220m
気温14℃
湿度94%
気圧1020hPa
METARLIRF 160320Z 13009KT 9999 FEW015 SCT025 BKN040 14/13 Q1020 NOSIG
過去の天気等 Google飛行場航空写真 Wunderground天気予報

過去48時間のMETAR

飛行場予報(TAF)
発表時間: 12/16 00:00 CET (12/15 23:00 UTC)
予報対象時間: 16日1時 CET ~ 17日7時 CET
風向・風速東南東 4m/s
視程10km以上
少しの雲 雲底高度 550m
全天の8割程度の雲 雲底高度 1220m
16日10時 CET ~ 16日12時 CET に徐々に
風向・風速南東 8m/s 瞬間風速 13m/s
TAF LIRF 152300Z 1600/1706 12008KT 9999 FEW018 BKN040
BECMG 1609/1611 14015G25KT